Time;durP1;ratioP1;P1;durP2;ratioP2;P2;SDS_P1;SDS_P2;PMS_P1;PMS_P2;Temp;Humidity;BMP_temperature;BMP_pressure;BME280_temperature;BME280_humidity;BME280_pressure;Samples;Min_cycle;Max_cycle;Signal;HPM_P1;HPM_P2
2023/07/24 00:02:27;;;;;;;7.20;5.77;;;27.30;58.90;;;;;;5048402;28;20455;-75
2023/07/24 00:04:55;;;;;;;5.63;5.13;;;27.20;58.90;;;;;;5049252;28;20504;-75
2023/07/24 00:07:25;;;;;;;6.40;5.80;;;27.20;59.00;;;;;;5053518;28;20472;-75
2023/07/24 00:09:55;;;;;;;5.80;5.10;;;27.20;58.90;;;;;;5048890;28;20468;-76
2023/07/24 00:12:23;;;;;;;9.43;5.07;;;27.20;59.00;;;;;;5046648;28;20455;-74
2023/07/24 00:14:54;;;;;;;6.53;5.37;;;27.20;59.10;;;;;;5047470;28;20455;-75
2023/07/24 00:17:22;;;;;;;5.90;5.40;;;27.20;59.10;;;;;;5058957;28;20467;-74
2023/07/24 00:19:51;;;;;;;5.47;4.70;;;27.20;59.20;;;;;;5046187;28;20470;-75
2023/07/24 00:22:19;;;;;;;7.83;6.13;;;27.20;59.10;;;;;;5052657;28;20459;-75
2023/07/24 00:24:47;;;;;;;5.50;4.97;;;27.20;59.20;;;;;;5050464;28;20474;-75
2023/07/24 00:27:18;;;;;;;7.00;6.30;;;27.20;59.30;;;;;;5044887;28;20473;-75
2023/07/24 00:29:47;;;;;;;6.53;5.93;;;27.20;59.30;;;;;;5044994;28;20462;-75
2023/07/24 00:32:16;;;;;;;7.37;6.17;;;27.20;59.40;;;;;;5053120;28;20465;-75
2023/07/24 00:34:44;;;;;;;5.60;5.10;;;27.20;59.40;;;;;;5053150;28;21024;-75
2023/07/24 00:37:12;;;;;;;6.80;5.90;;;27.20;59.40;;;;;;5037762;28;20515;-75
2023/07/24 00:39:41;;;;;;;7.50;5.90;;;27.20;59.50;;;;;;5026119;28;20498;-75
2023/07/24 00:42:09;;;;;;;5.03;4.60;;;27.20;59.50;;;;;;5044496;28;20509;-75
2023/07/24 00:44:37;;;;;;;6.30;5.57;;;27.20;59.50;;;;;;5047966;28;20484;-75
2023/07/24 00:47:06;;;;;;;6.13;5.53;;;27.20;59.60;;;;;;5030194;28;20520;-75
2023/07/24 00:49:36;;;;;;;6.53;5.80;;;27.20;59.60;;;;;;5045619;28;20521;-75
2023/07/24 00:52:08;;;;;;;6.57;5.97;;;27.20;59.70;;;;;;5043279;28;20470;-75
2023/07/24 00:54:37;;;;;;;6.90;5.27;;;27.20;59.70;;;;;;5045815;28;20539;-75
2023/07/24 00:57:06;;;;;;;5.47;4.60;;;27.10;59.70;;;;;;5042687;28;20481;-75
2023/07/24 00:59:36;;;;;;;6.43;5.13;;;27.10;59.60;;;;;;5043391;28;21226;-75
2023/07/24 01:02:05;;;;;;;6.30;5.70;;;27.10;59.70;;;;;;5041782;28;20513;-74
2023/07/24 01:04:34;;;;;;;6.40;5.60;;;27.10;59.70;;;;;;5044461;28;21028;-75
2023/07/24 01:07:03;;;;;;;6.40;5.80;;;27.10;59.70;;;;;;5031597;28;20550;-75
2023/07/24 01:09:31;;;;;;;6.77;6.07;;;27.10;59.70;;;;;;5026949;28;20483;-75
2023/07/24 01:12:05;;;;;;;6.77;5.73;;;27.10;59.90;;;;;;5041632;28;21030;-75
2023/07/24 01:14:41;;;;;;;6.23;5.60;;;27.10;59.90;;;;;;5042219;28;20453;-74
2023/07/24 01:17:10;;;;;;;6.97;6.03;;;27.10;59.90;;;;;;5042265;28;20470;-75
2023/07/24 01:19:43;;;;;;;7.47;5.40;;;27.10;60.00;;;;;;5043833;28;20459;-75
2023/07/24 01:22:24;;;;;;;6.00;5.40;;;27.10;60.00;;;;;;5033386;28;20475;-75
2023/07/24 01:25:06;;;;;;;6.10;5.50;;;27.10;60.00;;;;;;5041972;28;20483;-75
2023/07/24 01:27:35;;;;;;;6.80;6.10;;;27.10;60.00;;;;;;5051695;28;20464;-74
2023/07/24 01:30:04;;;;;;;6.87;6.07;;;27.10;60.10;;;;;;5048534;28;21063;-75
2023/07/24 01:32:32;;;;;;;6.20;4.97;;;27.10;60.10;;;;;;5034453;28;20455;-76
2023/07/24 01:35:00;;;;;;;6.00;5.13;;;27.10;60.10;;;;;;5042991;28;20549;-75
2023/07/24 01:37:30;;;;;;;6.50;5.60;;;27.10;60.10;;;;;;5030447;28;20466;-75
2023/07/24 01:39:59;;;;;;;6.47;5.57;;;27.10;60.20;;;;;;5046264;28;20544;-74
2023/07/24 01:42:30;;;;;;;6.30;5.70;;;27.10;60.10;;;;;;5044195;28;20512;-75
2023/07/24 01:44:59;;;;;;;6.93;5.83;;;27.10;60.20;;;;;;5051885;28;20528;-75
2023/07/24 01:47:27;;;;;;;6.77;5.60;;;27.10;60.20;;;;;;5045173;28;20469;-75
2023/07/24 01:49:56;;;;;;;6.13;5.53;;;27.10;60.20;;;;;;5050248;28;20554;-75
2023/07/24 01:52:24;;;;;;;7.17;5.30;;;27.10;60.20;;;;;;5050130;28;20462;-74
2023/07/24 01:54:52;;;;;;;5.57;4.83;;;27.00;60.20;;;;;;5033059;28;20907;-74
2023/07/24 01:57:21;;;;;;;6.97;6.27;;;27.00;60.30;;;;;;5036496;28;20466;-75
2023/07/24 01:59:49;;;;;;;6.47;5.87;;;27.00;60.30;;;;;;5046822;28;20462;-74
2023/07/24 02:02:19;;;;;;;6.10;5.20;;;27.00;60.30;;;;;;5032886;28;20486;-74
2023/07/24 02:04:47;;;;;;;6.00;5.30;;;27.00;60.30;;;;;;5048855;28;20452;-74
2023/07/24 02:07:15;;;;;;;11.70;6.00;;;27.00;60.70;;;;;;5044400;28;20463;-75
2023/07/24 02:09:44;;;;;;;6.70;5.90;;;27.00;60.30;;;;;;5046076;28;20470;-74
2023/07/24 02:12:12;;;;;;;6.53;5.77;;;27.00;60.70;;;;;;5032232;28;20471;-74
2023/07/24 02:14:40;;;;;;;5.97;5.37;;;27.00;60.90;;;;;;5027785;28;20458;-74
2023/07/24 02:17:09;;;;;;;6.40;5.40;;;27.00;60.60;;;;;;5051938;28;20469;-75
2023/07/24 02:19:38;;;;;;;6.33;5.53;;;27.00;60.30;;;;;;5044355;28;20509;-74
2023/07/24 02:22:06;;;;;;;6.10;5.50;;;27.00;60.30;;;;;;5031906;28;20993;-75
2023/07/24 02:24:35;;;;;;;7.57;5.73;;;27.00;60.30;;;;;;5031094;28;21190;-75
2023/07/24 02:27:06;;;;;;;6.37;5.50;;;27.00;60.40;;;;;;5030700;28;20576;-74
2023/07/24 02:29:35;;;;;;;6.47;5.50;;;27.00;60.60;;;;;;5025263;28;20520;-75
2023/07/24 02:32:04;;;;;;;5.63;5.00;;;27.00;60.50;;;;;;5048106;28;20458;-75
2023/07/24 02:34:32;;;;;;;9.10;6.00;;;27.00;60.50;;;;;;5046957;28;20474;-75
2023/07/24 02:37:02;;;;;;;8.23;5.37;;;27.00;60.50;;;;;;5049860;28;20473;-75
2023/07/24 02:39:30;;;;;;;8.77;6.80;;;27.00;60.50;;;;;;5043630;28;20503;-75
2023/07/24 02:42:01;;;;;;;8.70;5.80;;;27.00;60.50;;;;;;5047335;28;20462;-74
2023/07/24 02:44:30;;;;;;;6.03;5.00;;;26.90;60.50;;;;;;5048523;28;20461;-75
2023/07/24 02:46:58;;;;;;;8.67;5.93;;;26.90;60.50;;;;;;5049110;28;20550;-75
2023/07/24 02:49:26;;;;;;;6.53;5.60;;;26.90;60.60;;;;;;5048324;28;20508;-74
2023/07/24 02:51:54;;;;;;;6.80;6.10;;;26.90;60.60;;;;;;5048268;28;20493;-74
2023/07/24 02:54:24;;;;;;;6.47;5.23;;;26.90;60.60;;;;;;5047881;28;21026;-75
2023/07/24 02:56:52;;;;;;;7.03;6.33;;;26.90;60.60;;;;;;5045798;28;20466;-74
2023/07/24 02:59:20;;;;;;;8.27;5.70;;;26.90;60.60;;;;;;5043812;28;20459;-75
2023/07/24 03:01:49;;;;;;;7.13;5.97;;;26.90;60.70;;;;;;5046997;28;20529;-75
2023/07/24 03:04:19;;;;;;;8.57;6.10;;;26.90;60.80;;;;;;5032572;28;20554;-75
2023/07/24 03:06:47;;;;;;;5.87;4.93;;;26.90;60.80;;;;;;5048626;28;20474;-75
2023/07/24 03:09:16;;;;;;;6.93;6.20;;;26.90;60.80;;;;;;5048691;28;20473;-75
2023/07/24 03:11:45;;;;;;;7.20;6.23;;;26.90;60.70;;;;;;5042251;28;20462;-74
2023/07/24 03:14:13;;;;;;;6.63;5.80;;;26.90;60.70;;;;;;5049031;28;20461;-75
2023/07/24 03:16:42;;;;;;;7.87;5.80;;;26.90;60.80;;;;;;5048314;28;20467;-74
2023/07/24 03:19:10;;;;;;;7.33;6.60;;;26.90;60.90;;;;;;5040752;28;20460;-75
2023/07/24 03:21:38;;;;;;;7.43;6.10;;;26.90;60.90;;;;;;5041114;28;20520;-76
2023/07/24 03:24:06;;;;;;;6.40;5.67;;;26.90;60.90;;;;;;5028260;28;20468;-75
2023/07/24 03:26:35;;;;;;;8.03;6.00;;;26.90;61.00;;;;;;5047131;28;20835;-75
2023/07/24 03:29:06;;;;;;;6.53;5.83;;;26.90;61.00;;;;;;5047078;28;20958;-75
2023/07/24 03:31:34;;;;;;;6.77;6.07;;;26.90;61.00;;;;;;5045912;28;20529;-75
2023/07/24 03:34:03;;;;;;;7.87;5.93;;;26.90;61.00;;;;;;5029451;28;20466;-74
2023/07/24 03:36:31;;;;;;;5.80;5.20;;;26.90;61.10;;;;;;5046515;28;20466;-75
2023/07/24 03:38:59;;;;;;;6.60;5.50;;;26.90;61.10;;;;;;5048010;28;20484;-75
2023/07/24 03:41:28;;;;;;;7.80;5.57;;;26.90;61.00;;;;;;5035540;28;20469;-75
2023/07/24 03:43:56;;;;;;;6.80;5.83;;;26.90;61.10;;;;;;5048191;28;20516;-75
2023/07/24 03:46:26;;;;;;;8.90;5.80;;;26.90;61.10;;;;;;5046344;28;20472;-74
2023/07/24 03:48:55;;;;;;;6.70;5.90;;;26.90;61.20;;;;;;5045723;28;20458;-75
2023/07/24 03:51:23;;;;;;;6.60;6.00;;;26.80;61.20;;;;;;5046994;28;20524;-74
2023/07/24 03:53:51;;;;;;;8.03;5.80;;;26.80;61.20;;;;;;5041450;28;20536;-74
2023/07/24 03:56:22;;;;;;;7.03;6.33;;;26.80;61.20;;;;;;5048653;28;20569;-74
2023/07/24 03:58:50;;;;;;;7.57;6.00;;;26.80;61.20;;;;;;5048117;28;20836;-74
2023/07/24 04:01:18;;;;;;;6.20;5.63;;;26.80;61.20;;;;;;5046962;28;20514;-75
2023/07/24 04:03:48;;;;;;;6.90;6.00;;;26.80;61.20;;;;;;5044544;28;21256;-74
2023/07/24 04:06:16;;;;;;;6.93;6.10;;;26.80;61.20;;;;;;5047371;28;20477;-75
2023/07/24 04:08:44;;;;;;;7.97;6.17;;;26.80;61.30;;;;;;5041995;28;20493;-76
2023/07/24 04:11:12;;;;;;;7.10;6.40;;;26.80;61.30;;;;;;5043500;28;20457;-75
2023/07/24 04:13:41;;;;;;;7.23;5.67;;;26.80;61.40;;;;;;5042649;28;20464;-75
2023/07/24 04:16:09;;;;;;;7.30;5.87;;;26.80;61.30;;;;;;5046483;28;20663;-75
2023/07/24 04:18:40;;;;;;;7.23;6.40;;;26.80;61.30;;;;;;5039457;28;20458;-75
2023/07/24 04:21:09;;;;;;;7.03;6.23;;;26.80;61.30;;;;;;5043485;28;20462;-75
2023/07/24 04:23:40;;;;;;;6.10;5.50;;;26.80;61.30;;;;;;5043151;28;20470;-75
2023/07/24 04:26:08;;;;;;;6.83;5.80;;;26.80;61.40;;;;;;5046400;28;20508;-75
2023/07/24 04:28:36;;;;;;;7.37;6.57;;;26.80;61.40;;;;;;5041860;28;20531;-75
2023/07/24 04:31:05;;;;;;;6.77;5.30;;;26.80;61.30;;;;;;5039053;28;20463;-74
2023/07/24 04:33:33;;;;;;;5.70;5.20;;;26.80;61.40;;;;;;5044153;28;21012;-75
2023/07/24 04:36:01;;;;;;;8.23;6.07;;;26.80;61.40;;;;;;5042664;28;20481;-75
2023/07/24 04:38:31;;;;;;;6.53;5.93;;;26.80;61.40;;;;;;5045764;28;20552;-74
2023/07/24 04:41:02;;;;;;;7.03;6.30;;;26.80;61.40;;;;;;5046281;28;20457;-71
2023/07/24 04:43:30;;;;;;;10.70;6.23;;;26.80;61.40;;;;;;5044035;28;20450;-71
2023/07/24 04:45:58;;;;;;;6.40;5.80;;;26.80;61.40;;;;;;5038719;28;20504;-71
2023/07/24 04:48:26;;;;;;;6.73;6.07;;;26.80;61.60;;;;;;5045092;28;21048;-71
2023/07/24 04:50:55;;;;;;;6.60;6.00;;;26.80;61.60;;;;;;5044559;28;20470;-72
2023/07/24 04:53:24;;;;;;;7.93;6.40;;;26.80;61.80;;;;;;5046838;28;20468;-71
2023/07/24 04:55:53;;;;;;;6.60;5.80;;;26.80;61.90;;;;;;5043716;28;20461;-71
2023/07/24 04:58:22;;;;;;;7.03;6.07;;;26.80;61.90;;;;;;5045774;28;20461;-70
2023/07/24 05:00:50;;;;;;;7.70;6.87;;;26.80;62.00;;;;;;5038948;28;20479;-71
2023/07/24 05:03:19;;;;;;;7.77;6.97;;;26.80;62.10;;;;;;5043005;28;20510;-71
2023/07/24 05:05:50;;;;;;;7.20;5.73;;;26.80;62.10;;;;;;5035053;28;21154;-71
2023/07/24 05:08:18;;;;;;;7.60;6.20;;;26.80;62.20;;;;;;5041974;28;20478;-71
2023/07/24 05:10:46;;;;;;;7.27;6.47;;;26.80;62.30;;;;;;5029899;28;20462;-71
2023/07/24 05:13:16;;;;;;;7.07;5.80;;;26.80;62.40;;;;;;5044840;28;20462;-71
2023/07/24 05:15:44;;;;;;;7.83;6.13;;;26.80;62.40;;;;;;5042172;28;20760;-71
2023/07/24 05:18:12;;;;;;;7.00;6.00;;;26.80;62.50;;;;;;5039826;28;20470;-72
2023/07/24 05:20:45;;;;;;;7.60;6.03;;;26.80;62.50;;;;;;5040591;28;21299;-72
2023/07/24 05:23:13;;;;;;;6.80;6.20;;;26.80;62.50;;;;;;5042713;28;20963;-72
2023/07/24 05:25:42;;;;;;;7.87;6.27;;;26.80;62.60;;;;;;5047419;28;20532;-71
2023/07/24 05:28:10;;;;;;;6.40;5.80;;;26.80;62.60;;;;;;5039758;28;20481;-72
2023/07/24 05:30:40;;;;;;;8.37;6.33;;;26.80;62.60;;;;;;5041069;28;20459;-71
2023/07/24 05:33:08;;;;;;;7.07;6.37;;;26.80;62.70;;;;;;5042479;28;20468;-71
2023/07/24 05:35:36;;;;;;;8.50;6.07;;;26.80;62.70;;;;;;5043152;28;20465;-70
2023/07/24 05:38:04;;;;;;;12.03;6.40;;;26.80;62.70;;;;;;5044687;28;21021;-70
2023/07/24 05:40:32;;;;;;;12.63;6.50;;;26.80;62.70;;;;;;5041836;28;20865;-71
2023/07/24 05:43:01;;;;;;;9.43;6.47;;;26.80;62.80;;;;;;5042512;28;20886;-71
2023/07/24 05:45:29;;;;;;;9.10;6.80;;;26.80;62.90;;;;;;5046399;28;20458;-72
2023/07/24 05:47:58;;;;;;;11.23;7.00;;;26.80;62.90;;;;;;5039614;28;20995;-70
2023/07/24 05:50:27;;;;;;;8.60;6.60;;;26.80;62.90;;;;;;5044923;28;20453;-71
2023/07/24 05:52:55;;;;;;;7.70;6.77;;;26.90;63.00;;;;;;5045523;28;20469;-71
2023/07/24 05:55:23;;;;;;;7.10;6.40;;;26.90;63.00;;;;;;5044022;28;20524;-72
2023/07/24 05:57:51;;;;;;;7.93;7.13;;;26.90;63.00;;;;;;5045723;28;20460;-71
2023/07/24 06:00:20;;;;;;;8.23;7.20;;;26.90;63.00;;;;;;5043524;28;20464;-70
2023/07/24 06:02:48;;;;;;;7.30;6.47;;;26.90;63.20;;;;;;5027739;28;20813;-72
2023/07/24 06:05:19;;;;;;;7.97;6.47;;;26.90;63.50;;;;;;5044154;28;20557;-71
2023/07/24 06:07:47;;;;;;;7.80;6.40;;;26.90;63.40;;;;;;5039200;28;20485;-72
2023/07/24 06:10:16;;;;;;;7.77;6.23;;;26.90;63.40;;;;;;5048528;28;20451;-70
2023/07/24 06:12:44;;;;;;;8.20;7.07;;;26.80;63.50;;;;;;5044725;28;20473;-71
2023/07/24 06:15:12;;;;;;;6.60;5.97;;;26.80;63.40;;;;;;5044122;28;20504;-68
2023/07/24 06:17:40;;;;;;;7.70;6.40;;;26.80;63.40;;;;;;5043069;28;20975;-67
2023/07/24 06:20:09;;;;;;;6.90;6.20;;;26.80;63.70;;;;;;5046089;28;20466;-67
2023/07/24 06:22:39;;;;;;;8.90;6.70;;;26.80;63.80;;;;;;5044758;28;20977;-69
2023/07/24 06:25:08;;;;;;;7.97;6.93;;;26.80;64.00;;;;;;5050558;28;20466;-68
2023/07/24 06:27:36;;;;;;;9.43;7.40;;;26.80;64.20;;;;;;5047699;28;20835;-68
2023/07/24 06:30:05;;;;;;;8.70;6.47;;;26.80;64.00;;;;;;5045791;28;20465;-68
2023/07/24 06:32:43;;;;;;;8.07;6.23;;;26.80;64.20;;;;;;5043332;28;20455;-85
2023/07/24 06:35:11;;;;;;;9.23;6.47;;;26.80;64.30;;;;;;5050528;28;20458;-67
2023/07/24 06:37:41;;;;;;;7.83;6.20;;;26.80;64.30;;;;;;5043611;28;20472;-67
2023/07/24 06:40:10;;;;;;;10.50;7.03;;;26.80;64.30;;;;;;5046399;28;20964;-67
2023/07/24 06:42:38;;;;;;;8.37;6.97;;;26.80;64.20;;;;;;5047977;28;20472;-67
2023/07/24 06:45:08;;;;;;;7.70;6.87;;;26.80;64.30;;;;;;5049229;28;21076;-74
2023/07/24 06:47:37;;;;;;;7.50;6.50;;;26.80;64.30;;;;;;5042072;28;20460;-67
2023/07/24 06:50:07;;;;;;;8.70;7.10;;;26.80;64.30;;;;;;5048803;28;20507;-70
2023/07/24 06:52:35;;;;;;;7.60;6.70;;;26.80;64.30;;;;;;5044437;28;20525;-68
2023/07/24 06:55:05;;;;;;;7.60;6.60;;;26.80;64.30;;;;;;5049990;28;20540;-69
2023/07/24 06:57:34;;;;;;;8.70;6.63;;;26.80;64.20;;;;;;5043603;28;21105;-73
2023/07/24 07:00:02;;;;;;;7.50;5.90;;;26.80;64.30;;;;;;5039684;28;21007;-69
2023/07/24 07:02:30;;;;;;;7.43;6.73;;;26.80;64.00;;;;;;5043225;28;20455;-68
2023/07/24 07:04:58;;;;;;;7.10;6.37;;;26.80;64.10;;;;;;5046492;28;20460;-67
2023/07/24 07:07:27;;;;;;;9.30;5.83;;;26.80;64.20;;;;;;5043986;28;20470;-74
2023/07/24 07:09:55;;;;;;;10.37;6.27;;;26.80;64.40;;;;;;5044145;28;20564;-75
2023/07/24 07:12:24;;;;;;;7.90;6.17;;;26.80;64.30;;;;;;5044641;28;20518;-75
2023/07/24 07:14:53;;;;;;;9.00;6.37;;;26.80;64.60;;;;;;5043623;28;20477;-76
2023/07/24 07:17:21;;;;;;;7.57;6.77;;;26.80;64.40;;;;;;5050240;28;20951;-75
2023/07/24 07:19:49;;;;;;;8.03;6.00;;;26.80;64.40;;;;;;5049065;28;20493;-75
2023/07/24 07:22:17;;;;;;;8.80;6.00;;;26.90;64.20;;;;;;5045679;28;20570;-75
2023/07/24 07:24:46;;;;;;;7.37;6.57;;;26.90;63.90;;;;;;5032745;28;20466;-75
2023/07/24 07:27:17;;;;;;;7.23;6.13;;;26.90;63.80;;;;;;5045980;28;20466;-75
2023/07/24 07:29:46;;;;;;;6.47;5.80;;;26.90;63.80;;;;;;5047107;28;20473;-76
2023/07/24 07:32:14;;;;;;;8.13;6.53;;;27.00;63.80;;;;;;5044895;28;20965;-76
2023/07/24 07:34:42;;;;;;;5.73;5.13;;;27.00;63.70;;;;;;5046674;28;21134;-75
2023/07/24 07:37:11;;;;;;;8.30;7.00;;;27.00;63.70;;;;;;5046777;28;20950;-75
2023/07/24 07:39:39;;;;;;;6.43;5.70;;;27.00;63.60;;;;;;5031364;28;20490;-76
2023/07/24 07:42:08;;;;;;;6.90;6.03;;;27.00;63.60;;;;;;5045251;28;20827;-75
2023/07/24 07:44:47;;;;;;;7.50;6.07;;;27.10;63.60;;;;;;5041576;28;20469;-75
2023/07/24 07:47:15;;;;;;;6.17;5.37;;;27.10;63.50;;;;;;5041614;28;20479;-75
2023/07/24 07:49:43;;;;;;;6.27;5.67;;;27.10;63.40;;;;;;5045274;28;20510;-75
2023/07/24 07:52:12;;;;;;;7.27;6.57;;;27.20;63.30;;;;;;5046142;28;20459;-75
2023/07/24 07:54:40;;;;;;;7.20;6.30;;;27.20;63.40;;;;;;5045276;28;20451;-75
2023/07/24 07:57:09;;;;;;;7.60;5.90;;;27.20;63.50;;;;;;5039846;28;20458;-75
2023/07/24 07:59:37;;;;;;;6.10;5.50;;;27.20;63.50;;;;;;5045461;28;20992;-75
2023/07/24 08:02:07;;;;;;;6.07;5.47;;;27.20;63.40;;;;;;5046339;28;20487;-75
2023/07/24 08:04:35;;;;;;;6.50;5.40;;;27.30;63.30;;;;;;5043598;28;20462;-75
2023/07/24 08:07:04;;;;;;;6.10;5.50;;;27.30;63.30;;;;;;5046251;28;20461;-75
2023/07/24 08:09:33;;;;;;;5.83;5.23;;;27.30;63.10;;;;;;5049316;28;20533;-74
2023/07/24 08:12:01;;;;;;;6.40;5.63;;;27.40;63.00;;;;;;5043506;28;20545;-77
2023/07/24 08:14:29;;;;;;;5.73;5.17;;;27.40;63.00;;;;;;5044430;28;20461;-74
2023/07/24 08:16:58;;;;;;;8.67;4.67;;;27.40;63.10;;;;;;5046807;28;20474;-75
2023/07/24 08:19:30;;;;;;;5.77;5.27;;;27.40;63.10;;;;;;5045368;28;20464;-76
2023/07/24 08:21:58;;;;;;;5.87;5.30;;;27.40;63.20;;;;;;5042840;28;20757;-76
2023/07/24 08:24:27;;;;;;;5.43;4.73;;;27.40;63.20;;;;;;5025687;28;20858;-74
2023/07/24 08:26:55;;;;;;;6.43;5.83;;;27.40;63.00;;;;;;5040453;28;21035;-75
2023/07/24 08:29:23;;;;;;;6.90;5.90;;;27.40;63.00;;;;;;5046665;28;20541;-75
2023/07/24 08:31:51;;;;;;;6.20;5.60;;;27.50;62.90;;;;;;5044334;28;20463;-75
2023/07/24 08:34:20;;;;;;;5.67;5.17;;;27.50;62.90;;;;;;5042067;28;20948;-75
2023/07/24 08:36:49;;;;;;;5.80;5.30;;;27.50;62.80;;;;;;5045138;28;20460;-76
2023/07/24 08:39:18;;;;;;;5.67;5.03;;;27.50;62.80;;;;;;5035728;28;20835;-76
2023/07/24 08:41:46;;;;;;;7.40;6.50;;;27.60;62.70;;;;;;5044353;28;20498;-76
2023/07/24 08:44:15;;;;;;;6.03;5.20;;;27.60;62.80;;;;;;5040261;28;20459;-76
2023/07/24 08:46:45;;;;;;;6.60;4.87;;;27.60;62.70;;;;;;5041181;28;20504;-74
2023/07/24 08:49:14;;;;;;;5.57;5.00;;;27.60;62.80;;;;;;5043710;28;21161;-69
2023/07/24 08:51:43;;;;;;;6.13;5.27;;;27.60;62.70;;;;;;5044977;28;20799;-68
2023/07/24 08:54:13;;;;;;;5.67;5.17;;;27.60;62.80;;;;;;5048307;28;20969;-69
2023/07/24 08:56:41;;;;;;;5.23;4.73;;;27.60;62.90;;;;;;5044843;28;20460;-69
2023/07/24 08:59:09;;;;;;;6.03;5.17;;;27.60;63.10;;;;;;5043980;28;21006;-69
2023/07/24 09:01:38;;;;;;;7.33;5.37;;;27.60;63.00;;;;;;5046575;28;20797;-69
2023/07/24 09:04:06;;;;;;;4.60;4.20;;;27.50;63.00;;;;;;5048101;28;20445;-70
2023/07/24 09:06:34;;;;;;;7.77;4.97;;;27.60;63.10;;;;;;5044071;28;20492;-70
2023/07/24 09:09:03;;;;;;;7.33;5.40;;;27.60;63.10;;;;;;5040720;28;20477;-72
2023/07/24 09:11:33;;;;;;;7.30;4.97;;;27.50;63.10;;;;;;5043876;28;20454;-68
2023/07/24 09:14:01;;;;;;;5.80;4.63;;;27.50;63.10;;;;;;5023545;28;20461;-72
2023/07/24 09:16:29;;;;;;;5.40;5.00;;;27.50;63.10;;;;;;5043166;28;21024;-69
2023/07/24 09:18:58;;;;;;;6.17;5.50;;;27.50;63.10;;;;;;5045479;28;20461;-71
2023/07/24 09:21:38;;;;;;;6.30;5.63;;;27.50;63.30;;;;;;5045120;28;20459;-69
2023/07/24 09:24:13;;;;;;;5.03;4.53;;;27.50;63.20;;;;;;5045823;28;20878;-85
2023/07/24 09:26:50;;;;;;;6.20;4.90;;;27.50;63.40;;;;;;5046556;28;20465;-69
2023/07/24 09:29:20;;;;;;;6.60;5.80;;;27.50;63.30;;;;;;5021845;28;20503;-69
2023/07/24 09:31:50;;;;;;;4.90;4.43;;;27.50;63.30;;;;;;5044641;28;20466;-70
2023/07/24 09:34:19;;;;;;;6.10;4.57;;;27.50;63.30;;;;;;5037952;28;20491;-74
2023/07/24 09:36:47;;;;;;;4.40;4.00;;;27.50;63.30;;;;;;5046596;28;20518;-71
2023/07/24 09:39:15;;;;;;;5.90;5.23;;;27.50;63.40;;;;;;5048836;28;20495;-69
2023/07/24 09:41:43;;;;;;;7.53;5.33;;;27.50;63.40;;;;;;5047282;28;20461;-69
2023/07/24 09:44:14;;;;;;;6.60;5.07;;;27.50;63.30;;;;;;5046090;28;20540;-72
2023/07/24 09:46:44;;;;;;;6.13;5.53;;;27.50;63.40;;;;;;5033272;28;20514;-71
2023/07/24 09:49:30;;;;;;;5.10;4.67;;;27.50;63.40;;;;;;5049686;28;20961;-72
2023/07/24 09:52:05;;;;;;;5.63;5.10;;;27.50;63.40;;;;;;5044722;28;20462;-70
2023/07/24 09:54:45;;;;;;;4.80;4.37;;;27.50;63.30;;;;;;5047863;28;20581;-70
2023/07/24 09:57:14;;;;;;;5.27;4.77;;;27.50;63.40;;;;;;5048638;28;20500;-70
2023/07/24 09:59:52;;;;;;;4.73;4.17;;;27.50;63.30;;;;;;5045337;28;21064;-70
2023/07/24 10:02:22;;;;;;;5.80;5.23;;;27.50;63.40;;;;;;5049557;28;20458;-69
2023/07/24 10:04:50;;;;;;;4.53;4.13;;;27.50;63.40;;;;;;5048158;28;20805;-73
2023/07/24 10:07:21;;;;;;;4.90;4.50;;;27.60;63.30;;;;;;5049489;28;20475;-80
2023/07/24 10:09:50;;;;;;;4.87;4.20;;;27.50;63.30;;;;;;5032873;28;21002;-70
2023/07/24 10:12:19;;;;;;;5.23;4.30;;;27.60;63.20;;;;;;5043645;28;20526;-76
2023/07/24 10:14:49;;;;;;;5.00;4.40;;;27.60;63.20;;;;;;5045984;28;20955;-77
2023/07/24 10:17:35;;;;;;;5.00;4.60;;;27.60;63.10;;;;;;5043970;28;20966;-79
2023/07/24 10:20:05;;;;;;;4.80;4.33;;;27.60;63.20;;;;;;5049435;28;20462;-77
2023/07/24 10:22:34;;;;;;;5.57;4.30;;;27.60;63.10;;;;;;5038083;28;20460;-79
2023/07/24 10:25:04;;;;;;;5.80;4.40;;;27.70;63.10;;;;;;5048014;28;20465;-76
2023/07/24 10:27:36;;;;;;;5.47;4.30;;;27.70;63.10;;;;;;5049826;28;20519;-74
2023/07/24 10:30:07;;;;;;;4.90;4.40;;;27.70;63.00;;;;;;5035813;28;20575;-75
2023/07/24 10:33:05;;;;;;;6.50;4.70;;;27.70;62.70;;;;;;5048084;28;20548;-73
2023/07/24 10:35:39;;;;;;;6.03;4.03;;;27.70;62.60;;;;;;5046010;28;20511;-73
2023/07/24 10:38:07;;;;;;;4.30;3.90;;;27.70;62.40;;;;;;5046629;28;20580;-71
2023/07/24 10:40:35;;;;;;;4.50;3.80;;;27.80;62.20;;;;;;5043921;28;20468;-79
2023/07/24 10:43:08;;;;;;;5.20;4.70;;;27.80;62.30;;;;;;5026835;28;20532;-84
2023/07/24 10:45:49;;;;;;;4.47;4.03;;;27.80;62.20;;;;;;5049428;28;20461;-71
2023/07/24 10:48:20;;;;;;;5.90;4.40;;;27.80;62.20;;;;;;5048043;28;20999;-75
2023/07/24 10:50:50;;;;;;;9.53;4.80;;;27.80;62.20;;;;;;5031417;28;20530;-72
2023/07/24 10:53:23;;;;;;;4.43;4.03;;;27.80;62.10;;;;;;5046499;28;20561;-71
2023/07/24 10:55:53;;;;;;;5.73;4.70;;;27.80;62.00;;;;;;5041905;28;20984;-73
2023/07/24 10:58:25;;;;;;;4.50;3.63;;;27.90;61.90;;;;;;5045104;28;20932;-72
2023/07/24 11:00:57;;;;;;;4.33;3.93;;;27.80;61.90;;;;;;5042406;28;20547;-74
2023/07/24 11:03:28;;;;;;;4.90;4.50;;;27.80;61.80;;;;;;5040646;28;20455;-79
2023/07/24 11:05:57;;;;;;;4.90;4.00;;;27.80;61.90;;;;;;5043234;28;20457;-76
2023/07/24 11:08:25;;;;;;;6.10;4.97;;;27.70;61.90;;;;;;5044920;28;20464;-71
2023/07/24 11:10:56;;;;;;;4.67;4.20;;;27.70;62.20;;;;;;5042021;28;20478;-71
2023/07/24 11:13:26;;;;;;;3.70;3.40;;;27.70;62.30;;;;;;5035814;28;20474;-76
2023/07/24 11:15:55;;;;;;;6.30;4.43;;;27.60;62.50;;;;;;5039649;28;20477;-71
2023/07/24 11:18:26;;;;;;;4.80;4.27;;;27.60;62.40;;;;;;5045945;28;20461;-71
2023/07/24 11:21:06;;;;;;;4.50;4.07;;;27.60;62.60;;;;;;5041173;28;20529;-74
2023/07/24 11:23:34;;;;;;;6.40;4.60;;;27.60;62.50;;;;;;5021321;28;21346;-76
2023/07/24 11:26:06;;;;;;;5.00;4.50;;;27.60;62.70;;;;;;5046572;28;20957;-71
2023/07/24 11:28:40;;;;;;;4.87;4.40;;;27.60;62.80;;;;;;5042994;28;20461;-75
2023/07/24 11:31:09;;;;;;;4.50;4.10;;;27.50;62.80;;;;;;5042969;28;20485;-72
2023/07/24 11:33:37;;;;;;;4.60;4.20;;;27.50;62.90;;;;;;5047468;28;20470;-73
2023/07/24 11:36:07;;;;;;;5.07;4.47;;;27.50;62.90;;;;;;5044806;28;20456;-79
2023/07/24 11:38:37;;;;;;;4.37;3.83;;;27.50;63.10;;;;;;5029429;28;20868;-72
2023/07/24 11:41:06;;;;;;;4.33;3.93;;;27.50;62.90;;;;;;5040135;28;20467;-78
2023/07/24 11:43:35;;;;;;;5.87;4.60;;;27.50;62.80;;;;;;5040301;28;20457;-71
2023/07/24 11:46:04;;;;;;;5.03;4.20;;;27.50;62.90;;;;;;5043579;28;20961;-70
2023/07/24 11:48:32;;;;;;;5.10;4.57;;;27.50;62.90;;;;;;5031764;28;20863;-71
2023/07/24 11:51:00;;;;;;;5.53;4.77;;;27.50;62.90;;;;;;5042247;28;20577;-80
2023/07/24 11:53:31;;;;;;;6.30;3.90;;;27.50;62.90;;;;;;5040399;28;20492;-76
2023/07/24 11:56:02;;;;;;;7.00;3.77;;;27.50;62.80;;;;;;5019704;28;20833;-72
2023/07/24 11:58:30;;;;;;;5.50;3.83;;;27.50;62.80;;;;;;5043661;28;20470;-74
2023/07/24 12:00:59;;;;;;;4.30;3.80;;;27.50;62.80;;;;;;5043949;28;20456;-72
2023/07/24 12:03:29;;;;;;;5.47;3.80;;;27.50;62.80;;;;;;5040925;28;20479;-76
2023/07/24 12:05:58;;;;;;;5.13;3.70;;;27.50;62.80;;;;;;5044988;28;20460;-71
2023/07/24 12:08:33;;;;;;;5.63;5.07;;;27.50;63.20;;;;;;5044389;28;20827;-74
2023/07/24 12:11:02;;;;;;;4.00;3.30;;;27.50;63.10;;;;;;5050412;28;20994;-72
2023/07/24 12:13:31;;;;;;;4.83;4.10;;;27.40;63.20;;;;;;5030836;28;21734;-71
2023/07/24 12:15:59;;;;;;;6.00;4.40;;;27.50;63.20;;;;;;5047698;28;20456;-72
2023/07/24 12:18:27;;;;;;;6.80;3.97;;;27.50;63.00;;;;;;5041644;28;20457;-74
2023/07/24 12:20:56;;;;;;;5.37;4.47;;;27.50;62.90;;;;;;5038936;28;20489;-73
2023/07/24 12:23:24;;;;;;;4.13;3.70;;;27.60;62.80;;;;;;5045641;28;20451;-74
2023/07/24 12:25:54;;;;;;;5.73;4.03;;;27.60;62.70;;;;;;5045518;28;20461;-73
2023/07/24 12:28:22;;;;;;;5.00;4.13;;;27.60;62.70;;;;;;5041402;28;20981;-72
2023/07/24 12:30:50;;;;;;;3.53;3.23;;;27.70;62.60;;;;;;5037267;28;20567;-74
2023/07/24 12:33:23;;;;;;;4.40;3.90;;;27.70;62.50;;;;;;5040399;28;20527;-73
2023/07/24 12:35:51;;;;;;;3.47;3.17;;;27.70;62.40;;;;;;5043822;28;20461;-73
2023/07/24 12:38:20;;;;;;;4.27;3.87;;;27.70;62.40;;;;;;5044928;28;20520;-71
2023/07/24 12:40:48;;;;;;;5.13;4.50;;;27.80;62.50;;;;;;5043067;28;20464;-72
2023/07/24 12:43:18;;;;;;;5.70;3.47;;;27.80;62.40;;;;;;5044098;28;21404;-74
2023/07/24 12:45:46;;;;;;;4.73;4.23;;;27.80;62.40;;;;;;5046012;28;20472;-74
2023/07/24 12:48:17;;;;;;;4.43;3.80;;;27.80;62.50;;;;;;5044965;28;20503;-71
2023/07/24 12:50:47;;;;;;;5.20;4.30;;;27.80;62.50;;;;;;5045445;28;20461;-73
2023/07/24 12:53:15;;;;;;;5.23;3.10;;;27.80;62.60;;;;;;5045972;28;20832;-73
2023/07/24 12:55:54;;;;;;;5.20;3.80;;;27.80;62.60;;;;;;5045542;28;20551;-74
2023/07/24 12:58:24;;;;;;;4.10;3.70;;;27.80;62.50;;;;;;5043012;28;20461;-73